Time;durP1;ratioP1;P1;durP2;ratioP2;P2;SDS_P1;SDS_P2;PMS_P1;PMS_P2;Temp;Humidity;BMP_temperature;BMP_pressure;BME280_temperature;BME280_humidity;BME280_pressure;Samples;Min_cycle;Max_cycle;Signal;HPM_P1;HPM_P2
2022/01/03 00:01:19;;;;;;;11.47;2.90;;;8.90;99.90;;;;;;5027301;28;20459;-71
2022/01/03 00:03:45;;;;;;;9.65;2.78;;;8.90;99.90;;;;;;5043423;28;20530;-71
2022/01/03 00:06:11;;;;;;;10.48;2.67;;;9.00;99.90;;;;;;5042792;28;20048;-71
2022/01/03 00:08:42;;;;;;;16.70;2.97;;;9.00;99.90;;;;;;5042065;28;20045;-72
2022/01/03 00:11:12;;;;;;;15.63;3.40;;;9.00;99.90;;;;;;5043763;28;20403;-72
2022/01/03 00:13:45;;;;;;;13.85;3.00;;;9.10;99.90;;;;;;5043635;28;20052;-72
2022/01/03 00:16:11;;;;;;;15.07;2.35;;;9.10;99.90;;;;;;5025627;28;20496;-72
2022/01/03 00:18:38;;;;;;;12.07;2.33;;;9.10;99.90;;;;;;5024480;28;20049;-72
2022/01/03 00:21:09;;;;;;;12.40;2.17;;;9.20;99.90;;;;;;5027643;28;20041;-74
2022/01/03 00:23:37;;;;;;;13.45;2.60;;;9.20;99.90;;;;;;5040282;28;20048;-72
2022/01/03 00:26:03;;;;;;;13.13;2.38;;;9.20;99.90;;;;;;5025732;28;20047;-71
2022/01/03 00:29:10;;;;;;;13.85;2.97;;;9.30;99.90;;;;;;5042047;28;20033;-70
2022/01/03 00:31:41;;;;;;;16.83;2.63;;;9.30;99.90;;;;;;5031897;28;20068;-71
2022/01/03 00:34:09;;;;;;;13.90;3.15;;;9.30;99.90;;;;;;5043878;28;20048;-74
2022/01/03 00:36:36;;;;;;;16.10;2.78;;;9.40;99.90;;;;;;5044967;28;20056;-71
2022/01/03 00:39:05;;;;;;;17.77;2.97;;;9.40;99.90;;;;;;5045714;28;20056;-71
2022/01/03 00:41:39;;;;;;;19.65;3.22;;;9.40;99.90;;;;;;5046748;28;20057;-71
2022/01/03 00:44:05;;;;;;;16.73;2.92;;;9.40;99.90;;;;;;5011491;28;20122;-74
2022/01/03 00:46:33;;;;;;;16.60;2.85;;;9.40;99.90;;;;;;5048849;28;20110;-72
2022/01/03 00:49:03;;;;;;;17.75;5.25;;;9.50;99.90;;;;;;5029036;28;20048;-72
2022/01/03 00:51:30;;;;;;;21.50;3.65;;;9.50;99.90;;;;;;5048608;28;20057;-72
2022/01/03 00:53:56;;;;;;;18.20;3.42;;;9.50;99.90;;;;;;5032339;28;20040;-71
2022/01/03 00:56:34;;;;;;;16.55;2.58;;;9.50;99.90;;;;;;5046956;28;20048;-72
2022/01/03 00:59:34;;;;;;;21.30;4.32;;;9.50;99.90;;;;;;5048677;28;20111;-73
2022/01/03 01:02:02;;;;;;;17.88;3.10;;;9.50;99.90;;;;;;5024106;28;20057;-72
2022/01/03 01:04:28;;;;;;;19.98;3.22;;;9.50;99.90;;;;;;5047908;28;20889;-72
2022/01/03 01:06:58;;;;;;;17.73;3.87;;;9.50;99.90;;;;;;5043776;28;20049;-73
2022/01/03 01:09:27;;;;;;;24.15;3.92;;;9.60;99.90;;;;;;5047574;28;20120;-72
2022/01/03 01:11:55;;;;;;;23.42;3.50;;;9.60;99.90;;;;;;5029188;28;20416;-73
2022/01/03 01:14:23;;;;;;;16.65;3.22;;;9.40;99.90;;;;;;5031266;28;20056;-73
2022/01/03 01:16:49;;;;;;;24.58;5.05;;;9.50;99.90;;;;;;5027275;28;20044;-74
2022/01/03 01:19:18;;;;;;;18.08;3.55;;;9.50;99.90;;;;;;5041903;28;20073;-73
2022/01/03 01:21:44;;;;;;;19.30;3.47;;;9.50;99.90;;;;;;5029943;28;20037;-71
2022/01/03 01:24:14;;;;;;;21.05;3.53;;;9.50;99.90;;;;;;5046855;28;20060;-72
2022/01/03 01:29:24;;;;;;;19.17;4.10;;;9.40;99.90;;;;;;5045359;28;20052;-73
2022/01/03 01:31:54;;;;;;;20.95;4.22;;;9.50;99.90;;;;;;5044875;28;20049;-72
2022/01/03 01:34:26;;;;;;;20.10;4.35;;;9.50;99.90;;;;;;5045845;28;20044;-73
2022/01/03 01:36:54;;;;;;;21.35;3.28;;;9.40;99.90;;;;;;5045664;28;20053;-72
2022/01/03 01:39:22;;;;;;;20.48;3.58;;;9.40;99.90;;;;;;5047230;28;20431;-72
2022/01/03 01:41:53;;;;;;;21.08;3.95;;;9.50;99.90;;;;;;5028377;28;20135;-72
2022/01/03 01:44:21;;;;;;;18.17;3.28;;;9.50;99.90;;;;;;5044464;28;20355;-72
2022/01/03 01:46:54;;;;;;;21.52;3.70;;;9.50;99.90;;;;;;5042408;28;20051;-72
2022/01/03 01:49:22;;;;;;;23.17;3.90;;;9.50;99.90;;;;;;5026932;28;20515;-73
2022/01/03 01:52:03;;;;;;;21.27;4.55;;;9.50;99.90;;;;;;5025488;28;20055;-72
2022/01/03 01:54:37;;;;;;;24.08;4.32;;;9.50;99.90;;;;;;5025752;28;20126;-73
2022/01/03 01:57:03;;;;;;;19.88;3.63;;;9.50;99.90;;;;;;5045941;28;20080;-72
2022/01/03 02:00:11;;;;;;;22.35;4.03;;;9.50;99.90;;;;;;5044361;28;20464;-72
2022/01/03 02:03:03;;;;;;;20.85;4.50;;;9.50;99.90;;;;;;5026943;28;20083;-72
2022/01/03 02:05:43;;;;;;;23.50;4.35;;;9.50;99.90;;;;;;5041334;28;20084;-73
2022/01/03 02:08:15;;;;;;;;;;;9.50;99.90;;;;;;5041802;28;20040;-73
2022/01/03 02:11:07;;;;;;;20.63;4.00;;;9.50;99.90;;;;;;5046029;28;20054;-73
2022/01/03 02:13:36;;;;;;;23.27;3.80;;;9.40;99.90;;;;;;5044476;28;20499;-73
2022/01/03 02:16:04;;;;;;;20.30;4.65;;;9.50;99.90;;;;;;5029559;28;20098;-73
2022/01/03 02:18:32;;;;;;;17.55;3.45;;;9.50;99.90;;;;;;5041808;28;20048;-72
2022/01/03 02:20:58;;;;;;;20.40;4.07;;;9.40;99.90;;;;;;5012725;28;20041;-72
2022/01/03 02:23:24;;;;;;;17.80;3.67;;;9.50;99.90;;;;;;5029075;28;20040;-73
2022/01/03 02:25:50;;;;;;;16.77;4.22;;;9.50;99.90;;;;;;5044629;28;20048;-73
2022/01/03 02:28:20;;;;;;;16.75;3.40;;;9.40;99.90;;;;;;5045814;28;20045;-73
2022/01/03 02:30:46;;;;;;;25.15;4.10;;;9.40;99.90;;;;;;5013538;28;20099;-73
2022/01/03 02:33:15;;;;;;;20.08;3.58;;;9.40;99.90;;;;;;5044162;28;20063;-73
2022/01/03 02:35:43;;;;;;;23.58;4.93;;;9.40;99.90;;;;;;5045820;28;20098;-72
2022/01/03 02:38:09;;;;;;;18.15;3.22;;;9.40;99.90;;;;;;5029550;28;20519;-73
2022/01/03 02:40:36;;;;;;;23.80;4.00;;;9.40;99.90;;;;;;5046886;28;20053;-72
2022/01/03 02:43:02;;;;;;;19.08;3.25;;;9.30;99.90;;;;;;5045604;28;20057;-73
2022/01/03 02:45:29;;;;;;;22.40;3.65;;;9.30;99.90;;;;;;5046494;28;20416;-73
2022/01/03 02:48:00;;;;;;;21.63;3.92;;;9.20;99.90;;;;;;5026932;28;20057;-74
2022/01/03 02:50:32;;;;;;;17.77;3.45;;;9.20;99.90;;;;;;5045504;28;20044;-72
2022/01/03 02:53:01;;;;;;;22.90;3.65;;;9.20;99.90;;;;;;5043639;28;20060;-73
2022/01/03 02:55:31;;;;;;;22.42;5.05;;;9.20;99.90;;;;;;5048476;28;20048;-72
2022/01/03 02:58:05;;;;;;;26.17;4.40;;;9.20;99.90;;;;;;5029977;28;20049;-72
2022/01/03 03:00:36;;;;;;;28.50;4.68;;;9.20;99.90;;;;;;5046037;28;20059;-72
2022/01/03 03:03:03;;;;;;;26.80;4.18;;;9.30;99.90;;;;;;5029020;28;20062;-72
2022/01/03 03:05:32;;;;;;;19.95;3.80;;;9.20;99.90;;;;;;5013490;28;20063;-71
2022/01/03 03:07:58;;;;;;;23.15;4.07;;;9.20;99.90;;;;;;5044816;28;20049;-72
2022/01/03 03:10:25;;;;;;;20.55;3.40;;;9.20;99.90;;;;;;5029406;28;20531;-72
2022/01/03 03:12:52;;;;;;;23.88;3.97;;;9.10;99.90;;;;;;5045883;28;20045;-73
2022/01/03 03:15:18;;;;;;;25.17;4.90;;;9.00;99.90;;;;;;5044923;28;20128;-73
2022/01/03 03:17:45;;;;;;;29.55;3.75;;;9.00;99.90;;;;;;5011187;28;20041;-72
2022/01/03 03:20:15;;;;;;;17.90;3.33;;;8.90;99.90;;;;;;5045232;28;20053;-72
2022/01/03 03:22:42;;;;;;;23.40;4.45;;;8.90;99.90;;;;;;5044181;28;20044;-71
2022/01/03 03:25:08;;;;;;;20.67;3.97;;;9.00;99.90;;;;;;5041346;28;20057;-75
2022/01/03 03:27:36;;;;;;;22.33;4.15;;;9.00;99.90;;;;;;5042364;28;20444;-72
2022/01/03 03:30:05;;;;;;;22.27;3.67;;;9.00;99.90;;;;;;5027354;28;20036;-71
2022/01/03 03:32:31;;;;;;;25.27;4.72;;;8.90;99.90;;;;;;5043900;28;20041;-72
2022/01/03 03:34:57;;;;;;;23.85;4.57;;;8.90;99.90;;;;;;5026552;28;20106;-72
2022/01/03 03:37:22;;;;;;;26.88;4.80;;;8.90;99.90;;;;;;4995134;28;20049;-72
2022/01/03 03:39:48;;;;;;;23.85;4.00;;;9.00;99.90;;;;;;5027413;28;20483;-72
2022/01/03 03:42:15;;;;;;;25.05;4.15;;;9.00;99.90;;;;;;5045642;28;20079;-72
2022/01/03 03:44:41;;;;;;;26.63;4.72;;;9.00;99.90;;;;;;5044058;28;20049;-72
2022/01/03 03:47:08;;;;;;;27.58;4.68;;;9.00;99.90;;;;;;5043695;28;20041;-71
2022/01/03 03:49:34;;;;;;;21.48;4.35;;;9.00;99.90;;;;;;5041055;28;20124;-72
2022/01/03 03:52:02;;;;;;;24.77;4.28;;;9.00;99.90;;;;;;5026104;28;20985;-73
2022/01/03 03:54:32;;;;;;;25.13;4.38;;;9.10;99.90;;;;;;5043004;28;20053;-72
2022/01/03 03:57:03;;;;;;;31.08;5.95;;;9.10;99.90;;;;;;5010779;28;20076;-72
2022/01/03 03:59:29;;;;;;;24.63;4.10;;;9.10;99.90;;;;;;5040050;28;21806;-73
2022/01/03 04:01:55;;;;;;;22.95;4.22;;;9.10;99.90;;;;;;5043532;28;20076;-72
2022/01/03 04:04:21;;;;;;;28.20;5.57;;;9.10;99.90;;;;;;5045251;28;20392;-72
2022/01/03 04:06:48;;;;;;;22.60;4.13;;;9.10;99.90;;;;;;5026950;28;20103;-72
2022/01/03 04:09:14;;;;;;;27.27;6.03;;;9.20;99.90;;;;;;5043967;28;20079;-72
2022/01/03 04:11:40;;;;;;;24.98;4.90;;;9.20;99.90;;;;;;5043407;28;20047;-72
2022/01/03 04:14:06;;;;;;;22.77;3.78;;;9.20;99.90;;;;;;5044244;28;20037;-71
2022/01/03 04:16:34;;;;;;;24.67;4.53;;;9.20;99.90;;;;;;5042073;28;20043;-73
2022/01/03 04:19:00;;;;;;;23.33;4.78;;;9.20;99.90;;;;;;5025318;28;20123;-72
2022/01/03 04:21:27;;;;;;;21.17;4.22;;;9.30;99.90;;;;;;5026505;28;20136;-72
2022/01/03 04:23:53;;;;;;;27.50;4.70;;;9.30;99.90;;;;;;5041685;28;20082;-72
2022/01/03 04:26:19;;;;;;;22.52;3.80;;;9.30;99.90;;;;;;5025311;28;20064;-72
2022/01/03 04:28:45;;;;;;;28.55;4.50;;;9.30;99.90;;;;;;5009694;28;20033;-72
2022/01/03 04:31:11;;;;;;;26.75;4.05;;;9.30;99.90;;;;;;5026101;28;20041;-72
2022/01/03 04:33:56;;;;;;;24.98;5.15;;;9.40;99.90;;;;;;5027165;28;20118;-70
2022/01/03 04:36:24;;;;;;;26.13;4.13;;;9.40;99.90;;;;;;5044694;28;20088;-72
2022/01/03 04:38:50;;;;;;;23.88;4.43;;;9.40;99.90;;;;;;5043167;28;20848;-74
2022/01/03 04:41:16;;;;;;;22.20;4.72;;;9.40;99.90;;;;;;5011400;28;20118;-72
2022/01/03 04:43:42;;;;;;;28.05;4.90;;;9.40;99.90;;;;;;5026492;28;20408;-72
2022/01/03 04:46:09;;;;;;;24.98;4.53;;;9.40;99.90;;;;;;5027458;28;20080;-73
2022/01/03 04:48:37;;;;;;;29.25;4.85;;;9.40;99.90;;;;;;5043075;28;20504;-72
2022/01/03 04:51:03;;;;;;;28.50;4.72;;;9.50;99.90;;;;;;5042391;28;20048;-72
2022/01/03 04:53:29;;;;;;;25.77;5.45;;;9.50;99.90;;;;;;5043854;28;20390;-72
2022/01/03 04:55:55;;;;;;;26.10;4.70;;;9.50;99.90;;;;;;5025819;28;20041;-73
2022/01/03 04:58:21;;;;;;;24.30;6.43;;;9.40;99.90;;;;;;5043212;28;20059;-72
2022/01/03 05:00:48;;;;;;;27.70;6.70;;;9.40;99.90;;;;;;5040687;28;20098;-72
2022/01/03 05:03:15;;;;;;;30.17;4.47;;;9.40;99.90;;;;;;5027057;28;20057;-72
2022/01/03 05:05:41;;;;;;;23.60;5.32;;;9.40;99.90;;;;;;5024839;28;20057;-72
2022/01/03 05:08:07;;;;;;;26.90;4.63;;;9.40;99.90;;;;;;5012577;28;20049;-72
2022/01/03 05:10:33;;;;;;;26.27;5.35;;;9.30;99.90;;;;;;5029513;28;20079;-73
2022/01/03 05:13:02;;;;;;;23.77;4.93;;;9.40;99.90;;;;;;5028991;28;20759;-72
2022/01/03 05:15:31;;;;;;;29.67;6.20;;;9.40;99.90;;;;;;5029354;28;20103;-72
2022/01/03 05:17:57;;;;;;;25.35;4.53;;;9.40;99.90;;;;;;5045018;28;20056;-73
2022/01/03 05:20:23;;;;;;;29.90;4.57;;;9.40;99.90;;;;;;5030608;28;20045;-72
2022/01/03 05:22:48;;;;;;;25.15;4.43;;;9.30;99.90;;;;;;5064810;28;20103;-72
2022/01/03 05:25:14;;;;;;;33.55;6.28;;;9.30;99.90;;;;;;5032705;28;20115;-72
2022/01/03 05:27:42;;;;;;;32.20;5.25;;;9.30;99.90;;;;;;5032078;28;20135;-72
2022/01/03 05:30:09;;;;;;;27.20;5.07;;;9.30;99.90;;;;;;5032510;28;20081;-72
2022/01/03 05:32:35;;;;;;;27.58;5.72;;;9.30;99.90;;;;;;5013847;28;20058;-72
2022/01/03 05:35:01;;;;;;;23.73;4.50;;;9.30;99.90;;;;;;5028672;28;20058;-72
2022/01/03 05:37:27;;;;;;;31.02;4.68;;;9.30;99.90;;;;;;5012833;28;20049;-73
2022/01/03 05:39:53;;;;;;;26.48;4.97;;;9.30;99.90;;;;;;4998405;28;20048;-71
2022/01/03 05:42:19;;;;;;;26.55;5.45;;;9.30;99.90;;;;;;5048988;28;20310;-72
2022/01/03 05:44:44;;;;;;;32.40;5.28;;;9.30;99.90;;;;;;5048037;28;20076;-72
2022/01/03 05:47:10;;;;;;;26.70;4.88;;;9.30;99.90;;;;;;5048149;28;20226;-72
2022/01/03 05:49:36;;;;;;;30.00;5.40;;;9.20;99.90;;;;;;5030671;28;20049;-72
2022/01/03 05:52:02;;;;;;;27.70;5.25;;;9.20;99.90;;;;;;5030044;28;20195;-71
2022/01/03 05:54:28;;;;;;;33.38;5.60;;;9.20;99.90;;;;;;5030629;28;20124;-71
2022/01/03 05:56:54;;;;;;;29.60;5.05;;;9.20;99.90;;;;;;5031563;28;20048;-71
2022/01/03 05:59:20;;;;;;;30.05;6.05;;;9.10;99.90;;;;;;5031279;28;20048;-73
2022/01/03 06:01:51;;;;;;;24.92;4.70;;;9.20;99.90;;;;;;5027264;28;20191;-71
2022/01/03 06:04:25;;;;;;;22.08;4.88;;;9.20;99.90;;;;;;5045704;28;20048;-71
2022/01/03 06:07:05;;;;;;;31.85;5.40;;;9.20;99.90;;;;;;5045511;28;20079;-70
2022/01/03 06:09:31;;;;;;;30.45;5.43;;;9.30;99.90;;;;;;5039981;28;20079;-71
2022/01/03 06:11:58;;;;;;;27.55;4.75;;;9.30;99.90;;;;;;5026990;28;20436;-72
2022/01/03 06:14:27;;;;;;;29.75;4.55;;;9.30;99.90;;;;;;5012913;28;20049;-72
2022/01/03 06:16:53;;;;;;;31.23;5.88;;;9.40;99.90;;;;;;5029016;28;20059;-71
2022/01/03 06:19:20;;;;;;;28.13;5.70;;;9.40;99.90;;;;;;5025090;28;20049;-72
2022/01/03 06:21:46;;;;;;;34.35;6.25;;;9.30;99.90;;;;;;5027871;28;20753;-71
2022/01/03 06:24:14;;;;;;;29.42;5.38;;;9.30;99.90;;;;;;5045124;28;20056;-71
2022/01/03 06:26:42;;;;;;;24.40;4.38;;;9.30;99.90;;;;;;5047359;28;20048;-72
2022/01/03 06:29:10;;;;;;;35.08;6.25;;;9.30;99.90;;;;;;5046310;28;20496;-71
2022/01/03 06:31:37;;;;;;;30.45;5.28;;;9.30;99.90;;;;;;5047668;28;20045;-72
2022/01/03 06:34:03;;;;;;;25.85;4.65;;;9.20;99.90;;;;;;5046262;28;20049;-71
2022/01/03 06:36:29;;;;;;;30.73;5.25;;;9.30;99.90;;;;;;5030732;28;20484;-70
2022/01/03 06:38:56;;;;;;;36.35;6.13;;;9.30;99.90;;;;;;5043677;28;20060;-71
2022/01/03 06:41:22;;;;;;;25.10;4.90;;;9.30;99.90;;;;;;5042724;28;20064;-70
2022/01/03 06:43:48;;;;;;;30.92;5.25;;;9.30;99.90;;;;;;5046269;28;20056;-71
2022/01/03 06:46:15;;;;;;;24.83;4.82;;;9.20;99.90;;;;;;5030710;28;20068;-71
2022/01/03 06:48:42;;;;;;;29.65;6.25;;;9.30;99.90;;;;;;5045656;28;20080;-71
2022/01/03 06:51:08;;;;;;;31.20;5.45;;;9.30;99.90;;;;;;5045893;28;20521;-71
2022/01/03 06:53:33;;;;;;;30.27;5.60;;;9.30;99.90;;;;;;5015086;28;20547;-71
2022/01/03 06:55:59;;;;;;;34.50;5.50;;;9.30;99.90;;;;;;5014959;28;20130;-71
2022/01/03 06:58:25;;;;;;;26.65;4.40;;;9.30;99.90;;;;;;5031785;28;20044;-71
2022/01/03 07:00:51;;;;;;;25.38;4.93;;;9.30;99.90;;;;;;4998998;28;20041;-72
2022/01/03 07:03:16;;;;;;;33.20;5.50;;;9.30;99.90;;;;;;5027480;28;20045;-72
2022/01/03 07:05:42;;;;;;;25.38;5.13;;;9.30;99.90;;;;;;5048305;28;20118;-72
2022/01/03 07:08:08;;;;;;;24.50;4.93;;;9.30;99.90;;;;;;5047314;28;20503;-72
2022/01/03 07:10:34;;;;;;;30.23;5.05;;;9.40;99.90;;;;;;5013910;28;20033;-72
2022/01/03 07:13:01;;;;;;;29.73;4.68;;;9.40;99.90;;;;;;5014701;28;20095;-73
2022/01/03 07:20:57;;;;;;;30.88;6.25;;;9.30;99.90;;;;;;5030853;28;20053;-73
2022/01/03 07:23:23;;;;;;;28.65;5.43;;;9.30;99.90;;;;;;5046634;28;20715;-72
2022/01/03 07:25:49;;;;;;;25.85;4.78;;;9.30;99.90;;;;;;5025946;28;20048;-72
2022/01/03 07:28:16;;;;;;;30.33;5.72;;;9.30;99.90;;;;;;5047592;28;20459;-72
2022/01/03 07:30:43;;;;;;;34.30;6.15;;;9.30;99.90;;;;;;5047941;28;20410;-73
2022/01/03 07:33:09;;;;;;;27.83;4.65;;;9.40;99.90;;;;;;5047002;28;20416;-73
2022/01/03 07:35:35;;;;;;;27.45;5.28;;;9.40;99.90;;;;;;5046303;28;20053;-72
2022/01/03 07:38:03;;;;;;;23.90;4.15;;;9.40;99.90;;;;;;5045915;28;20098;-73
2022/01/03 07:40:33;;;;;;;29.58;4.53;;;9.40;99.90;;;;;;5047476;28;20140;-73
2022/01/03 07:43:01;;;;;;;33.50;5.93;;;9.40;99.90;;;;;;5044719;28;20045;-73
2022/01/03 07:45:27;;;;;;;30.88;5.35;;;9.40;99.90;;;;;;5040205;28;20534;-73
2022/01/03 07:47:53;;;;;;;28.60;4.95;;;9.40;99.90;;;;;;5023933;28;20067;-73
2022/01/03 07:50:19;;;;;;;26.00;5.63;;;9.50;99.90;;;;;;4989699;28;20665;-73
2022/01/03 07:52:45;;;;;;;34.35;5.60;;;9.50;99.90;;;;;;5023864;28;20037;-72
2022/01/03 07:55:13;;;;;;;29.48;5.32;;;9.50;99.90;;;;;;5032057;28;20048;-73
2022/01/03 07:57:39;;;;;;;26.83;5.35;;;9.50;99.90;;;;;;5011196;28;20504;-73
2022/01/03 08:00:08;;;;;;;28.75;5.35;;;9.50;99.90;;;;;;5043790;28;20041;-72
2022/01/03 08:02:34;;;;;;;29.88;6.13;;;9.50;99.90;;;;;;5010735;28;20039;-72
2022/01/03 08:04:59;;;;;;;31.10;5.88;;;9.60;99.90;;;;;;5026688;28;20041;-72
2022/01/03 08:07:25;;;;;;;34.30;5.95;;;9.60;99.90;;;;;;5027712;28;20506;-72
2022/01/03 08:09:51;;;;;;;31.52;5.85;;;9.60;99.90;;;;;;5026855;28;20049;-73
2022/01/03 08:12:18;;;;;;;30.08;5.22;;;9.60;99.90;;;;;;5024990;28;20055;-73
2022/01/03 08:14:45;;;;;;;25.88;4.75;;;9.60;99.90;;;;;;5026997;28;20045;-73
2022/01/03 08:17:10;;;;;;;25.67;4.88;;;9.60;99.90;;;;;;5024715;28;20044;-74
2022/01/03 08:19:36;;;;;;;33.25;6.28;;;9.60;99.90;;;;;;5039962;28;20587;-73
2022/01/03 08:22:02;;;;;;;26.05;4.35;;;9.70;99.90;;;;;;5042456;28;20033;-73
2022/01/03 08:24:28;;;;;;;26.77;4.28;;;9.70;99.90;;;;;;4995053;28;20045;-73
2022/01/03 08:26:54;;;;;;;27.38;4.95;;;9.70;99.90;;;;;;5043084;28;20041;-73
2022/01/03 08:29:21;;;;;;;25.50;5.35;;;9.80;99.90;;;;;;5041726;28;20120;-73
2022/01/03 08:31:47;;;;;;;32.72;5.75;;;9.70;99.90;;;;;;5022812;28;20140;-72
2022/01/03 08:34:13;;;;;;;29.33;4.97;;;9.80;99.90;;;;;;5025511;28;20106;-72
2022/01/03 08:36:39;;;;;;;27.00;5.25;;;9.80;99.90;;;;;;5003999;28;20049;-72
2022/01/03 08:39:05;;;;;;;27.83;5.05;;;9.80;99.90;;;;;;5036886;28;20041;-71
2022/01/03 08:41:31;;;;;;;23.85;5.07;;;9.80;99.90;;;;;;5023580;28;20048;-72
2022/01/03 08:43:57;;;;;;;19.90;4.18;;;9.80;99.90;;;;;;5043856;28;20040;-72
2022/01/03 08:46:24;;;;;;;31.45;6.78;;;9.80;99.90;;;;;;5026083;28;20033;-72
2022/01/03 08:48:51;;;;;;;25.45;4.70;;;9.80;99.90;;;;;;5043630;28;20182;-72
2022/01/03 08:51:17;;;;;;;28.35;4.15;;;9.80;99.90;;;;;;5022475;28;20053;-72
2022/01/03 08:53:43;;;;;;;25.02;4.80;;;9.80;99.90;;;;;;5002287;28;20489;-72
2022/01/03 08:56:09;;;;;;;22.55;3.88;;;9.90;99.90;;;;;;5005436;28;20053;-72
2022/01/03 08:58:35;;;;;;;25.75;4.70;;;9.90;99.90;;;;;;5047038;28;20046;-73
2022/01/03 09:01:01;;;;;;;26.90;4.63;;;9.90;99.90;;;;;;5020199;28;20103;-73
2022/01/03 09:03:27;;;;;;;23.92;4.38;;;9.90;99.90;;;;;;5027233;28;20057;-73
2022/01/03 09:05:54;;;;;;;26.52;5.40;;;9.90;99.90;;;;;;5000251;28;20114;-72
2022/01/03 09:08:22;;;;;;;27.13;4.00;;;9.90;99.90;;;;;;5016671;28;20045;-72
2022/01/03 09:10:49;;;;;;;22.98;4.32;;;9.90;99.90;;;;;;5020272;28;20053;-73
2022/01/03 09:13:19;;;;;;;20.83;4.47;;;9.90;99.90;;;;;;4985792;28;20471;-73
2022/01/03 09:15:46;;;;;;;24.33;4.72;;;9.90;99.90;;;;;;5040027;28;20476;-73
2022/01/03 09:18:14;;;;;;;20.65;3.60;;;10.00;99.90;;;;;;5008471;28;20049;-73
2022/01/03 09:20:39;;;;;;;26.38;4.65;;;10.00;99.90;;;;;;5014040;28;20128;-73
2022/01/03 09:23:14;;;;;;;24.33;4.60;;;10.00;99.90;;;;;;5000444;28;20179;-74
2022/01/03 09:30:55;;;;;;;23.67;4.35;;;10.00;99.90;;;;;;5026272;28;20041;-74
2022/01/03 09:33:21;;;;;;;29.42;5.47;;;10.10;99.90;;;;;;5018028;28;20048;-73
2022/01/03 09:35:47;;;;;;;26.23;4.28;;;10.00;99.90;;;;;;5051485;28;20443;-73
2022/01/03 09:38:13;;;;;;;23.02;4.10;;;10.00;99.90;;;;;;5031341;28;20500;-72
2022/01/03 09:40:40;;;;;;;26.67;4.60;;;10.10;99.90;;;;;;5017438;28;20050;-74
2022/01/03 09:43:09;;;;;;;24.25;3.65;;;10.10;99.90;;;;;;5020248;28;20128;-73
2022/01/03 09:45:37;;;;;;;25.30;4.75;;;10.10;99.90;;;;;;5025035;28;20044;-73
2022/01/03 09:48:07;;;;;;;23.55;4.13;;;10.20;99.90;;;;;;5020482;28;20076;-72
2022/01/03 09:50:34;;;;;;;25.42;4.32;;;10.10;99.90;;;;;;5011828;28;20309;-73
2022/01/03 09:53:03;;;;;;;25.45;4.63;;;10.10;99.90;;;;;;5035107;28;20107;-73
2022/01/03 09:55:32;;;;;;;25.13;3.65;;;10.10;99.90;;;;;;5028798;28;20540;-75
2022/01/03 09:57:59;;;;;;;22.45;4.10;;;10.10;99.90;;;;;;5029831;28;20053;-73
2022/01/03 10:00:26;;;;;;;25.25;4.18;;;10.10;99.90;;;;;;5055665;28;20049;-72
2022/01/03 10:02:54;;;;;;;25.90;4.25;;;10.10;99.90;;;;;;5032614;28;20052;-72
2022/01/03 10:05:20;;;;;;;21.55;4.30;;;10.10;99.90;;;;;;5030477;28;20129;-72
2022/01/03 10:07:47;;;;;;;23.45;4.28;;;10.20;99.90;;;;;;5034777;28;20087;-73
2022/01/03 10:10:14;;;;;;;28.13;4.45;;;10.10;99.90;;;;;;5045556;28;20814;-73
2022/01/03 10:12:40;;;;;;;27.95;4.45;;;10.20;99.90;;;;;;5043796;28;20569;-73
2022/01/03 10:15:08;;;;;;;23.75;4.85;;;10.10;99.90;;;;;;5028319;28;20056;-72
2022/01/03 10:17:41;;;;;;;27.38;4.30;;;10.20;99.90;;;;;;5047109;28;20057;-71
2022/01/03 10:20:10;;;;;;;19.17;4.03;;;10.10;99.90;;;;;;5031446;28;20133;-73
2022/01/03 10:22:37;;;;;;;28.70;4.10;;;10.10;99.90;;;;;;5046449;28;20041;-72
2022/01/03 10:25:14;;;;;;;24.30;4.38;;;10.20;99.90;;;;;;5046522;28;20098;-72
2022/01/03 10:28:03;;;;;;;29.23;5.05;;;10.10;99.90;;;;;;5030627;28;20053;-74
2022/01/03 10:30:40;;;;;;;24.58;4.00;;;10.20;99.90;;;;;;5048375;28;20049;-72
2022/01/03 10:33:10;;;;;;;17.50;3.38;;;10.20;99.90;;;;;;5026837;28;20044;-74
2022/01/03 10:35:45;;;;;;;27.37;4.37;;;10.20;99.90;;;;;;5021033;28;20488;-72
2022/01/03 10:38:29;;;;;;;24.52;4.10;;;10.30;99.90;;;;;;5010273;28;20099;-73
2022/01/03 10:41:09;;;;;;;26.15;3.72;;;10.30;99.90;;;;;;5037530;28;20053;-73
2022/01/03 10:43:35;;;;;;;27.20;5.68;;;10.30;99.90;;;;;;5029207;28;20052;-72
2022/01/03 10:46:23;;;;;;;19.88;4.57;;;10.30;99.90;;;;;;5029835;28;20037;-72
2022/01/03 10:48:53;;;;;;;28.80;4.75;;;10.30;99.90;;;;;;5029487;28;20294;-72
2022/01/03 10:51:27;;;;;;;35.38;5.20;;;10.30;99.90;;;;;;5028588;28;20636;-71
2022/01/03 10:53:54;;;;;;;24.60;4.28;;;10.30;99.90;;;;;;5028391;28;20076;-71
2022/01/03 10:56:36;;;;;;;21.83;3.65;;;10.30;99.90;;;;;;5035357;28;20056;-73
2022/01/03 10:59:22;;;;;;;26.25;4.07;;;10.30;99.90;;;;;;5024005;28;20496;-72
2022/01/03 11:01:50;;;;;;;21.77;3.88;;;10.30;99.90;;;;;;5025320;28;20136;-72
2022/01/03 11:13:12;;;;;;;22.27;4.15;;;10.40;99.90;;;;;;5034671;28;20195;-71
2022/01/03 11:15:59;;;;;;;21.90;3.63;;;10.40;99.90;;;;;;5026054;28;20515;-71
2022/01/03 11:18:30;;;;;;;27.63;4.07;;;10.30;99.90;;;;;;5041555;28;20110;-71
2022/01/03 11:21:11;;;;;;;25.25;4.05;;;10.40;99.90;;;;;;5024729;28;20049;-71
2022/01/03 11:23:39;;;;;;;22.33;4.00;;;10.40;99.90;;;;;;5026275;28;20462;-71
2022/01/03 11:26:10;;;;;;;19.20;3.40;;;10.40;99.90;;;;;;5024127;28;20504;-71
2022/01/03 11:28:36;;;;;;;22.80;4.43;;;10.40;99.90;;;;;;5033940;28;20799;-71
2022/01/03 11:31:03;;;;;;;19.58;4.40;;;10.50;99.90;;;;;;5015474;28;20096;-72
2022/01/03 11:33:30;;;;;;;20.70;3.67;;;10.60;99.90;;;;;;5016358;28;20053;-71
2022/01/03 11:36:01;;;;;;;22.00;4.20;;;10.70;99.90;;;;;;5015999;28;20080;-71
2022/01/03 11:38:30;;;;;;;22.65;3.85;;;10.70;99.90;;;;;;5009489;28;20103;-72
2022/01/03 11:41:01;;;;;;;19.00;3.30;;;10.70;99.90;;;;;;5043433;28;20049;-71
2022/01/03 11:43:31;;;;;;;20.20;3.45;;;10.70;99.90;;;;;;5027970;28;20282;-71
2022/01/03 11:45:57;;;;;;;20.67;3.60;;;10.70;99.90;;;;;;5037219;28;20049;-72
2022/01/03 11:48:26;;;;;;;21.67;3.75;;;10.70;99.90;;;;;;5008472;28;20045;-72
2022/01/03 11:51:00;;;;;;;20.80;3.30;;;10.70;99.90;;;;;;5031214;28;20045;-72
2022/01/03 11:53:27;;;;;;;20.95;4.47;;;10.60;99.90;;;;;;5030479;28;20049;-73
2022/01/03 11:55:55;;;;;;;19.65;3.28;;;10.60;99.90;;;;;;5042561;28;20052;-71
2022/01/03 11:59:06;;;;;;;20.80;3.83;;;10.70;99.90;;;;;;5045637;28;20129;-75
2022/01/03 12:04:20;;;;;;;21.92;4.20;;;10.70;99.90;;;;;;5031105;28;20199;-72
2022/01/03 12:06:46;;;;;;;20.55;4.00;;;10.60;99.90;;;;;;5026728;28;20718;-72
2022/01/03 12:09:15;;;;;;;23.88;4.28;;;10.60;99.90;;;;;;5042818;28;20149;-72
2022/01/03 12:11:53;;;;;;;20.05;3.97;;;10.70;99.90;;;;;;5045636;28;20066;-72
2022/01/03 12:14:21;;;;;;;15.90;3.28;;;10.70;99.90;;;;;;5046074;28;20067;-72
2022/01/03 12:16:53;;;;;;;25.35;3.83;;;10.70;99.90;;;;;;5046610;28;20056;-72
2022/01/03 12:19:21;;;;;;;24.02;4.70;;;10.60;99.90;;;;;;5027915;28;20325;-72
2022/01/03 12:21:50;;;;;;;22.15;3.50;;;10.70;99.90;;;;;;5043062;28;20745;-72
2022/01/03 12:24:40;;;;;;;21.40;5.38;;;10.70;99.90;;;;;;5043173;28;20072;-72
2022/01/03 12:27:16;;;;;;;32.05;6.10;;;10.70;99.90;;;;;;5038712;28;20041;-71
2022/01/03 12:29:54;;;;;;;21.63;4.30;;;10.70;99.90;;;;;;5027879;28;20061;-72
2022/01/03 12:32:38;;;;;;;25.60;3.83;;;10.70;99.90;;;;;;5030905;28;20037;-71
2022/01/03 12:35:16;;;;;;;21.35;3.83;;;10.70;99.90;;;;;;5039203;28;20045;-71
2022/01/03 12:38:05;;;;;;;24.90;3.63;;;10.70;99.90;;;;;;5049373;28;20111;-71
2022/01/03 12:40:32;;;;;;;23.63;3.85;;;10.80;99.90;;;;;;5043362;28;20045;-73
2022/01/03 12:43:09;;;;;;;24.17;4.32;;;10.70;99.90;;;;;;5049007;28;20588;-71
2022/01/03 12:45:44;;;;;;;18.00;3.58;;;10.70;99.90;;;;;;5049779;28;20057;-74
2022/01/03 12:48:10;;;;;;;24.15;4.18;;;10.70;99.90;;;;;;5036318;28;20045;-71
2022/01/03 12:50:52;;;;;;;31.27;4.85;;;10.70;99.90;;;;;;5030773;28;20045;-71
2022/01/03 12:53:27;;;;;;;22.60;4.80;;;10.70;99.90;;;;;;5029597;28;20753;-71
2022/01/03 12:56:02;;;;;;;23.85;4.35;;;10.70;99.90;;;;;;5029479;28;20689;-72
2022/01/03 12:58:27;;;;;;;24.25;4.15;;;10.70;99.90;;;;;;5029556;28;20144;-72
2022/01/03 13:00:56;;;;;;;25.13;4.40;;;10.80;99.90;;;;;;5045941;28;20131;-72
2022/01/03 13:03:32;;;;;;;25.42;4.63;;;10.80;99.90;;;;;;5045698;28;20484;-72
2022/01/03 13:06:42;;;;;;;21.55;4.28;;;10.80;99.90;;;;;;5028603;28;20133;-71
2022/01/03 13:09:10;;;;;;;29.07;5.20;;;10.80;99.90;;;;;;5037044;28;20088;-71
2022/01/03 13:11:43;;;;;;;24.33;4.82;;;10.80;99.90;;;;;;5037428;28;20315;-71
2022/01/03 13:14:14;;;;;;;22.77;3.70;;;10.80;99.90;;;;;;5029002;28;20060;-72
2022/01/03 13:16:42;;;;;;;20.77;4.47;;;10.80;99.90;;;;;;5040588;28;20694;-72
2022/01/03 13:19:31;;;;;;;20.58;4.13;;;10.80;99.90;;;;;;5014753;28;20057;-72